createdAt,value
2023-05-09T00:00:09.462Z,1.21
2023-05-09T00:02:42.331Z,1.32
2023-05-09T00:05:14.225Z,1.51
2023-05-09T00:07:45.962Z,1.35
2023-05-09T00:10:17.610Z,1.56
2023-05-09T00:12:49.297Z,1.66
2023-05-09T00:15:21.033Z,1.55
2023-05-09T00:17:52.719Z,1.43
2023-05-09T00:20:24.314Z,1.46
2023-05-09T00:22:55.928Z,1.50
2023-05-09T00:25:27.536Z,1.45
2023-05-09T00:27:59.239Z,1.39
2023-05-09T00:30:31.456Z,1.61
2023-05-09T00:33:03.111Z,1.49
2023-05-09T00:35:34.935Z,1.53
2023-05-09T00:38:06.493Z,1.43
2023-05-09T00:40:38.394Z,1.41
2023-05-09T00:43:10.447Z,1.27
2023-05-09T00:45:42.922Z,1.41
2023-05-09T00:48:15.744Z,1.35
2023-05-09T00:50:47.586Z,1.37
2023-05-09T00:53:20.275Z,1.35
2023-05-09T00:55:54.995Z,1.40
2023-05-09T00:58:27.291Z,1.46
2023-05-09T01:00:59.348Z,1.55
2023-05-09T01:03:32.174Z,1.67
2023-05-09T01:06:16.999Z,1.41
2023-05-09T01:09:03.525Z,1.52
2023-05-09T01:12:19.505Z,1.66
2023-05-09T01:15:06.052Z,1.49
2023-05-09T01:17:58.377Z,1.30
2023-05-09T01:20:41.618Z,1.45
2023-05-09T01:23:45.104Z,1.36
2023-05-09T01:26:36.723Z,1.53
2023-05-09T01:29:34.178Z,1.62
2023-05-09T01:32:13.919Z,1.51
2023-05-09T01:34:51.829Z,1.44
2023-05-09T01:37:37.990Z,1.60
2023-05-09T01:40:18.690Z,1.53
2023-05-09T01:43:08.301Z,1.70
2023-05-09T01:45:43.019Z,1.58
2023-05-09T01:48:16.632Z,1.59
2023-05-09T01:50:49.689Z,1.71
2023-05-09T01:53:25.674Z,1.52
2023-05-09T01:56:00.038Z,1.68
2023-05-09T01:58:34.210Z,1.37
2023-05-09T02:01:07.632Z,1.51
2023-05-09T02:03:45.054Z,1.63
2023-05-09T02:06:20.805Z,1.60
2023-05-09T02:08:52.588Z,1.38
2023-05-09T02:11:24.518Z,1.60
2023-05-09T02:13:56.681Z,1.68
2023-05-09T02:16:28.883Z,1.75
2023-05-09T02:19:01.400Z,1.59
2023-05-09T02:21:33.390Z,1.66
2023-05-09T02:24:05.627Z,1.71
2023-05-09T02:26:39.632Z,1.65
2023-05-09T02:29:12.396Z,1.85
2023-05-09T02:31:48.654Z,1.57
2023-05-09T02:34:21.128Z,1.48
2023-05-09T02:36:52.988Z,1.68
2023-05-09T02:39:24.873Z,1.36
2023-05-09T02:41:56.403Z,1.45
2023-05-09T02:44:27.997Z,1.44
2023-05-09T02:46:59.674Z,1.55
2023-05-09T02:49:32.734Z,1.48
2023-05-09T02:52:05.742Z,1.60
2023-05-09T02:54:38.222Z,1.48
2023-05-09T02:57:09.814Z,1.41
2023-05-09T02:59:41.450Z,1.59
2023-05-09T03:02:13.174Z,1.48
2023-05-09T03:04:45.138Z,1.48
2023-05-09T03:07:17.073Z,1.55
2023-05-09T03:09:48.607Z,1.42
2023-05-09T03:12:20.447Z,1.50
2023-05-09T03:14:52.191Z,1.36
2023-05-09T03:17:23.862Z,1.60
2023-05-09T03:19:55.551Z,1.47
2023-05-09T03:22:27.594Z,1.42
2023-05-09T03:25:05.277Z,1.54
2023-05-09T03:27:37.019Z,1.31
2023-05-09T03:30:12.631Z,1.47
2023-05-09T03:32:45.897Z,1.52
2023-05-09T03:35:17.707Z,1.50
2023-05-09T03:37:49.323Z,1.79
2023-05-09T03:40:21.040Z,1.66
2023-05-09T03:42:59.252Z,1.89
2023-05-09T03:45:31.151Z,1.66
2023-05-09T03:48:03.309Z,1.64
2023-05-09T03:50:37.976Z,1.53
2023-05-09T03:53:10.005Z,1.64
2023-05-09T03:55:42.972Z,1.57
2023-05-09T03:58:17.443Z,1.57
2023-05-09T04:00:50.700Z,1.54
2023-05-09T04:03:27.256Z,1.50
2023-05-09T04:06:00.341Z,1.47
2023-05-09T04:08:37.426Z,1.54
2023-05-09T04:11:10.806Z,1.64
2023-05-09T04:13:46.486Z,1.59
2023-05-09T04:16:37.354Z,1.80
2023-05-09T04:19:09.302Z,1.53
2023-05-09T04:21:41.081Z,1.48
2023-05-09T04:24:13.636Z,1.45
2023-05-09T04:26:51.006Z,1.67
2023-05-09T04:29:26.426Z,1.49
2023-05-09T04:32:02.460Z,1.53
2023-05-09T04:34:34.466Z,1.63
2023-05-09T04:37:12.696Z,1.64
2023-05-09T04:39:44.651Z,1.47
2023-05-09T04:42:23.344Z,1.51
2023-05-09T04:44:54.980Z,1.73
2023-05-09T04:47:27.423Z,1.67
2023-05-09T04:49:59.095Z,1.63
2023-05-09T04:52:31.463Z,1.72
2023-05-09T04:55:03.181Z,1.69
2023-05-09T04:57:40.281Z,1.82
2023-05-09T05:00:12.575Z,1.80
2023-05-09T05:02:45.317Z,1.85
2023-05-09T05:05:17.296Z,1.93
2023-05-09T05:07:48.853Z,1.93
2023-05-09T05:10:25.249Z,1.93
2023-05-09T05:13:05.020Z,1.92
2023-05-09T05:15:36.722Z,1.83
2023-05-09T05:18:09.300Z,1.81
2023-05-09T05:20:41.592Z,1.68
2023-05-09T05:23:13.506Z,1.80
2023-05-09T05:25:48.642Z,1.87
2023-05-09T05:28:20.705Z,1.73
2023-05-09T05:30:52.508Z,1.88
2023-05-09T05:33:24.459Z,1.97
2023-05-09T05:35:56.774Z,1.72
2023-05-09T05:38:28.779Z,2.08
2023-05-09T05:41:02.232Z,2.00
2023-05-09T05:43:35.271Z,1.83
2023-05-09T05:46:07.521Z,1.57
2023-05-09T05:48:40.042Z,1.80
2023-05-09T05:51:12.013Z,1.71
2023-05-09T05:53:45.811Z,1.87
2023-05-09T05:56:17.894Z,1.97
2023-05-09T05:58:49.681Z,2.01
2023-05-09T06:01:22.788Z,1.95
2023-05-09T06:03:54.689Z,2.19
2023-05-09T06:06:28.790Z,2.20
2023-05-09T06:09:00.787Z,2.21
2023-05-09T06:11:32.466Z,2.42
2023-05-09T06:14:04.531Z,2.38
2023-05-09T06:16:36.708Z,2.26
2023-05-09T06:19:08.819Z,2.34
2023-05-09T06:21:40.869Z,2.05
2023-05-09T06:24:31.806Z,2.36
2023-05-09T06:27:07.324Z,2.10
2023-05-09T06:29:39.452Z,2.14
2023-05-09T06:32:11.420Z,2.22
2023-05-09T06:34:43.140Z,2.15
2023-05-09T06:37:15.136Z,2.19
2023-05-09T06:39:47.390Z,2.10
2023-05-09T06:42:19.587Z,1.94
2023-05-09T06:44:52.152Z,2.13
2023-05-09T06:47:24.011Z,2.13
2023-05-09T06:49:55.839Z,2.15
2023-05-09T06:52:27.790Z,1.96
2023-05-09T06:55:00.395Z,2.23
2023-05-09T06:57:32.233Z,2.10
2023-05-09T07:00:04.578Z,2.17
2023-05-09T07:02:36.279Z,2.13
2023-05-09T07:05:09.654Z,2.00
2023-05-09T07:07:41.318Z,2.10
2023-05-09T07:10:13.216Z,1.96
2023-05-09T07:12:45.023Z,1.97
2023-05-09T07:15:28.644Z,1.83
2023-05-09T07:18:05.200Z,1.86
2023-05-09T07:20:36.940Z,1.89
2023-05-09T07:23:08.602Z,2.03
2023-05-09T07:25:40.475Z,1.80
2023-05-09T07:28:12.047Z,1.82
2023-05-09T07:31:11.849Z,1.93
2023-05-09T07:33:50.170Z,1.87
2023-05-09T07:36:21.976Z,1.96
2023-05-09T07:38:53.586Z,1.98
2023-05-09T07:41:25.192Z,1.74
2023-05-09T07:43:56.754Z,1.79
2023-05-09T07:46:28.448Z,1.92
2023-05-09T07:49:00.089Z,1.83
2023-05-09T07:51:31.755Z,2.05
2023-05-09T07:54:03.633Z,1.87
2023-05-09T07:56:35.466Z,1.83
2023-05-09T07:59:07.150Z,2.07
2023-05-09T08:01:38.885Z,2.04
2023-05-09T08:04:10.776Z,2.28
2023-05-09T08:06:42.590Z,2.32
2023-05-09T08:09:14.294Z,2.26
2023-05-09T08:11:45.964Z,2.39
2023-05-09T08:14:17.647Z,2.43
2023-05-09T08:16:49.450Z,2.12
2023-05-09T08:19:21.108Z,2.34
2023-05-09T08:21:53.210Z,2.31
2023-05-09T08:24:25.076Z,2.54
2023-05-09T08:26:57.260Z,2.22
2023-05-09T08:29:29.620Z,2.07
2023-05-09T08:32:02.517Z,1.84
2023-05-09T08:34:35.564Z,2.23
2023-05-09T08:37:07.941Z,2.09
2023-05-09T08:39:40.204Z,1.96
2023-05-09T08:42:13.353Z,2.08
2023-05-09T08:44:45.141Z,2.05
2023-05-09T08:47:18.089Z,2.47
2023-05-09T08:49:52.240Z,5.01
2023-05-09T08:52:24.742Z,5.97
2023-05-09T08:54:57.102Z,3.59
2023-05-09T08:57:29.868Z,2.27
2023-05-09T09:00:03.707Z,2.32
2023-05-09T09:02:35.553Z,2.49
2023-05-09T09:07:41.459Z,2.59
2023-05-09T09:10:13.832Z,2.71
2023-05-09T09:12:46.719Z,3.12
2023-05-09T09:15:22.571Z,2.59
2023-05-09T09:17:57.861Z,2.33
2023-05-09T09:20:33.738Z,2.48
2023-05-09T09:23:09.380Z,2.52
2023-05-09T09:25:41.008Z,2.78
2023-05-09T09:28:12.714Z,2.47
2023-05-09T09:30:48.365Z,2.82
2023-05-09T09:33:21.794Z,2.99
2023-05-09T09:35:55.263Z,2.34
2023-05-09T09:38:26.917Z,2.53
2023-05-09T09:40:59.261Z,2.65
2023-05-09T09:43:32.038Z,2.39
2023-05-09T09:46:05.391Z,2.71
2023-05-09T09:48:36.997Z,2.80
2023-05-09T09:51:10.373Z,3.08
2023-05-09T09:53:43.384Z,2.72
2023-05-09T09:56:15.127Z,2.40
2023-05-09T09:58:46.762Z,2.66
2023-05-09T10:01:18.406Z,2.80
2023-05-09T10:03:50.136Z,3.11
2023-05-09T10:06:21.867Z,2.64
2023-05-09T10:08:53.461Z,2.66
2023-05-09T10:11:25.117Z,2.47
2023-05-09T10:13:57.004Z,2.24
2023-05-09T10:16:40.181Z,2.55
2023-05-09T10:19:19.184Z,2.61
2023-05-09T10:21:54.497Z,2.29
2023-05-09T10:24:56.865Z,2.70
2023-05-09T10:27:35.328Z,2.49
2023-05-09T10:30:12.823Z,2.65
2023-05-09T10:33:23.053Z,2.20
2023-05-09T10:35:58.211Z,2.44
2023-05-09T10:38:30.908Z,3.06
2023-05-09T10:41:03.774Z,2.72
2023-05-09T10:43:36.830Z,2.34
2023-05-09T10:46:09.517Z,2.65
2023-05-09T10:48:43.886Z,3.10
2023-05-09T10:51:17.332Z,3.01
2023-05-09T10:53:50.942Z,2.92
2023-05-09T10:56:26.872Z,2.52
2023-05-09T10:59:00.318Z,2.45
2023-05-09T11:01:38.180Z,2.51
2023-05-09T11:04:17.138Z,2.59
2023-05-09T11:06:52.751Z,2.50
2023-05-09T11:09:36.391Z,2.29
2023-05-09T11:12:14.154Z,2.40
2023-05-09T11:14:47.150Z,2.30
2023-05-09T11:17:22.362Z,2.72
2023-05-09T11:20:04.356Z,2.92
2023-05-09T11:22:40.671Z,2.64
2023-05-09T11:25:14.841Z,2.67
2023-05-09T11:27:49.578Z,2.66
2023-05-09T11:30:23.248Z,2.55
2023-05-09T11:32:55.978Z,2.66
2023-05-09T11:35:28.431Z,2.95
2023-05-09T11:38:02.552Z,3.25
2023-05-09T11:40:35.305Z,3.13
2023-05-09T11:43:07.701Z,2.96
2023-05-09T11:45:41.165Z,2.60
2023-05-09T11:48:12.711Z,2.72
2023-05-09T11:50:47.319Z,2.85
2023-05-09T11:53:18.910Z,2.54
2023-05-09T11:55:50.576Z,2.56
2023-05-09T11:58:22.235Z,2.54
2023-05-09T12:00:53.937Z,2.57
2023-05-09T12:03:26.030Z,2.67
2023-05-09T12:05:57.840Z,2.58
2023-05-09T12:08:29.469Z,2.36
2023-05-09T12:11:10.539Z,2.42
2023-05-09T12:13:49.572Z,2.16
2023-05-09T12:16:21.326Z,2.23
2023-05-09T12:18:53.460Z,2.14
2023-05-09T12:21:25.053Z,2.16
2023-05-09T12:23:56.648Z,2.24
2023-05-09T12:26:28.778Z,2.13
2023-05-09T12:29:00.817Z,2.30
2023-05-09T12:31:32.941Z,2.34
2023-05-09T12:34:04.842Z,2.54
2023-05-09T12:36:36.988Z,2.73
2023-05-09T12:39:10.211Z,3.05
2023-05-09T12:41:57.335Z,3.20
2023-05-09T12:44:33.055Z,3.03
2023-05-09T12:47:05.184Z,3.08
2023-05-09T12:49:37.083Z,2.81
2023-05-09T12:52:18.931Z,3.11
2023-05-09T12:54:53.050Z,2.92
2023-05-09T12:57:25.908Z,2.96
2023-05-09T12:59:58.692Z,2.96
2023-05-09T13:02:38.544Z,3.23
2023-05-09T13:05:12.870Z,3.39
2023-05-09T13:07:47.328Z,3.30
2023-05-09T13:10:20.414Z,3.47
2023-05-09T13:12:52.519Z,4.12
2023-05-09T13:15:24.397Z,4.33
2023-05-09T13:17:56.269Z,4.19
2023-05-09T13:20:28.100Z,4.29
2023-05-09T13:23:00.731Z,4.42
2023-05-09T13:25:32.467Z,4.12
2023-05-09T13:28:05.402Z,4.36
2023-05-09T13:30:38.456Z,3.84
2023-05-09T13:33:24.417Z,4.83
2023-05-09T13:35:56.889Z,4.93
2023-05-09T13:38:28.894Z,4.63
2023-05-09T13:41:02.422Z,5.27
2023-05-09T13:43:34.459Z,5.83
2023-05-09T13:46:06.787Z,5.64
2023-05-09T13:48:38.650Z,5.55
2023-05-09T13:51:10.734Z,5.24
2023-05-09T13:53:43.561Z,4.96
2023-05-09T13:56:15.674Z,5.10
2023-05-09T13:58:47.333Z,4.73
2023-05-09T14:01:18.950Z,4.34
2023-05-09T14:03:50.574Z,4.69
2023-05-09T14:06:22.283Z,4.53
2023-05-09T14:08:53.893Z,4.29
2023-05-09T14:11:25.900Z,4.99
2023-05-09T14:13:57.439Z,4.33
2023-05-09T14:16:29.171Z,4.38
2023-05-09T14:19:00.981Z,3.83
2023-05-09T14:21:32.564Z,3.58
2023-05-09T14:24:04.517Z,4.02
2023-05-09T14:26:36.572Z,4.13
2023-05-09T14:29:08.214Z,4.04
2023-05-09T14:31:39.849Z,3.78
2023-05-09T14:34:11.459Z,4.10
2023-05-09T14:36:43.103Z,4.08
2023-05-09T14:39:14.687Z,4.00
2023-05-09T14:41:46.357Z,3.46
2023-05-09T14:44:17.978Z,2.09
2023-05-09T14:46:49.732Z,1.88
2023-05-09T14:49:21.503Z,1.61
2023-05-09T14:51:56.322Z,1.55
2023-05-09T14:54:28.076Z,1.42
2023-05-09T14:56:59.780Z,1.55
2023-05-09T14:59:31.762Z,1.53
2023-05-09T15:02:03.752Z,1.45
2023-05-09T15:04:35.836Z,1.64
2023-05-09T15:07:07.829Z,1.80
2023-05-09T15:09:39.605Z,1.84
2023-05-09T15:12:11.715Z,1.63
2023-05-09T15:14:43.574Z,1.77
2023-05-09T15:17:15.377Z,1.58
2023-05-09T15:19:47.086Z,1.74
2023-05-09T15:22:19.001Z,1.61
2023-05-09T15:24:50.842Z,1.56
2023-05-09T15:27:22.972Z,1.74
2023-05-09T15:29:54.972Z,1.56
2023-05-09T15:32:30.403Z,1.76
2023-05-09T15:35:02.852Z,1.77
2023-05-09T15:37:35.777Z,1.74
2023-05-09T15:40:09.261Z,1.58
2023-05-09T15:42:41.257Z,1.64
2023-05-09T15:45:13.214Z,1.88
2023-05-09T15:47:45.127Z,1.81
2023-05-09T15:50:17.443Z,1.86
2023-05-09T15:52:49.443Z,1.88
2023-05-09T15:55:22.221Z,1.87
2023-05-09T15:57:54.198Z,1.88
2023-05-09T16:00:27.686Z,2.13
2023-05-09T16:02:59.921Z,2.01
2023-05-09T16:05:32.629Z,1.97
2023-05-09T16:08:04.698Z,2.12
2023-05-09T16:10:36.839Z,2.16
2023-05-09T16:13:09.045Z,2.19
2023-05-09T16:15:40.863Z,2.18
2023-05-09T16:18:12.502Z,2.00
2023-05-09T16:20:44.262Z,2.30
2023-05-09T16:23:15.825Z,2.35
2023-05-09T16:25:47.457Z,2.36
2023-05-09T16:28:18.953Z,2.13
2023-05-09T16:30:50.889Z,2.32
2023-05-09T16:33:22.509Z,2.37
2023-05-09T16:35:54.068Z,2.34
2023-05-09T16:38:26.121Z,2.25
2023-05-09T16:40:57.698Z,2.21
2023-05-09T16:43:29.303Z,2.15
2023-05-09T16:46:00.890Z,2.46
2023-05-09T16:48:32.468Z,2.45
2023-05-09T16:51:04.151Z,2.23
2023-05-09T16:53:35.715Z,2.37
2023-05-09T16:56:07.329Z,2.61
2023-05-09T16:58:39.075Z,2.59
2023-05-09T17:01:10.788Z,2.31
2023-05-09T17:03:42.395Z,2.68
2023-05-09T17:06:14.024Z,2.62
2023-05-09T17:08:46.045Z,2.33
2023-05-09T17:11:17.583Z,2.37
2023-05-09T17:13:49.161Z,1.98
2023-05-09T17:16:20.936Z,1.94
2023-05-09T17:18:52.800Z,1.58
2023-05-09T17:21:24.560Z,1.37
2023-05-09T17:23:56.365Z,1.62
2023-05-09T17:26:28.088Z,1.20
2023-05-09T17:28:59.947Z,1.30
2023-05-09T17:31:31.592Z,1.23
2023-05-09T17:34:03.481Z,1.30
2023-05-09T17:36:35.572Z,1.17
2023-05-09T17:39:07.622Z,1.47
2023-05-09T17:41:39.536Z,1.31
2023-05-09T17:44:12.408Z,1.39
2023-05-09T17:46:45.219Z,1.25
2023-05-09T17:49:17.419Z,1.23
2023-05-09T17:51:49.483Z,1.29
2023-05-09T17:54:21.224Z,1.27
2023-05-09T17:56:53.517Z,1.09
2023-05-09T17:59:25.792Z,0.99
2023-05-09T18:01:59.517Z,0.89
2023-05-09T18:04:31.462Z,1.01
2023-05-09T18:07:03.774Z,0.84
2023-05-09T18:09:35.645Z,0.85
2023-05-09T18:12:08.302Z,0.86
2023-05-09T18:14:41.316Z,0.69
2023-05-09T18:17:13.625Z,0.67
2023-05-09T18:19:45.645Z,0.64
2023-05-09T18:22:17.533Z,0.60
2023-05-09T18:24:49.631Z,0.64
2023-05-09T18:27:22.745Z,0.68
2023-05-09T18:29:54.828Z,0.70
2023-05-09T18:32:26.743Z,0.67
2023-05-09T18:34:58.391Z,0.68
2023-05-09T18:37:29.958Z,0.69
2023-05-09T18:40:01.632Z,0.56
2023-05-09T18:42:33.306Z,0.67
2023-05-09T18:45:05.333Z,0.65
2023-05-09T18:47:38.046Z,0.70
2023-05-09T18:50:10.215Z,0.52
2023-05-09T18:52:41.823Z,0.64
2023-05-09T18:55:13.475Z,0.57
2023-05-09T18:57:45.601Z,0.71
2023-05-09T19:00:17.546Z,0.58
2023-05-09T19:02:49.289Z,0.62
2023-05-09T19:05:20.935Z,0.58
2023-05-09T19:07:54.108Z,0.59
2023-05-09T19:10:26.025Z,0.63
2023-05-09T19:12:57.831Z,0.56
2023-05-09T19:15:29.596Z,0.53
2023-05-09T19:18:01.874Z,0.87
2023-05-09T19:20:33.710Z,0.68
2023-05-09T19:23:05.474Z,0.78
2023-05-09T19:25:37.308Z,0.79
2023-05-09T19:28:09.147Z,0.69
2023-05-09T19:30:41.675Z,0.85
2023-05-09T19:33:13.590Z,0.69
2023-05-09T19:35:45.369Z,0.71
2023-05-09T19:38:17.174Z,0.76
2023-05-09T19:40:49.053Z,0.66
2023-05-09T19:43:21.018Z,0.72
2023-05-09T19:45:52.747Z,0.97
2023-05-09T19:48:24.709Z,0.89
2023-05-09T19:50:57.931Z,0.81
2023-05-09T19:53:29.902Z,0.78
2023-05-09T19:56:03.588Z,0.70
2023-05-09T19:58:35.572Z,0.84
2023-05-09T20:01:07.474Z,0.61
2023-05-09T20:03:40.104Z,0.78
2023-05-09T20:06:16.028Z,0.82
2023-05-09T20:08:48.018Z,0.94
2023-05-09T20:11:20.587Z,0.77
2023-05-09T20:13:52.331Z,0.85
2023-05-09T20:16:24.919Z,0.83
2023-05-09T20:18:56.780Z,0.92
2023-05-09T20:21:30.177Z,0.79
2023-05-09T20:24:03.095Z,0.77
2023-05-09T20:26:34.938Z,0.81
2023-05-09T20:29:07.755Z,0.75
2023-05-09T20:31:40.229Z,0.79
2023-05-09T20:34:12.244Z,0.90
2023-05-09T20:36:48.616Z,0.87
2023-05-09T20:39:21.110Z,0.75
2023-05-09T20:41:53.561Z,0.78
2023-05-09T20:44:25.573Z,0.93
2023-05-09T20:46:57.879Z,0.91
2023-05-09T20:49:30.192Z,0.87
2023-05-09T20:52:02.145Z,0.99
2023-05-09T20:54:33.702Z,1.09
2023-05-09T20:57:05.266Z,0.85
2023-05-09T20:59:36.855Z,0.81
2023-05-09T21:02:08.394Z,0.88
2023-05-09T21:04:39.906Z,0.94
2023-05-09T21:07:11.475Z,0.92
2023-05-09T21:09:42.991Z,0.86
2023-05-09T21:12:14.573Z,1.06
2023-05-09T21:14:46.064Z,0.90
2023-05-09T21:17:17.748Z,0.84
2023-05-09T21:19:49.922Z,0.91
2023-05-09T21:22:21.529Z,0.90
2023-05-09T21:24:53.198Z,0.72
2023-05-09T21:27:24.810Z,0.83
2023-05-09T21:29:56.352Z,0.74
2023-05-09T21:32:27.873Z,0.76
2023-05-09T21:34:59.558Z,0.79
2023-05-09T21:37:31.083Z,0.84
2023-05-09T21:40:05.397Z,0.79
2023-05-09T21:42:37.394Z,0.81
2023-05-09T21:45:09.511Z,0.71
2023-05-09T21:47:41.240Z,0.64
2023-05-09T21:50:13.046Z,0.80
2023-05-09T21:52:44.657Z,0.90
2023-05-09T21:55:21.170Z,0.80
2023-05-09T21:57:52.923Z,0.96
2023-05-09T22:00:32.394Z,0.79
2023-05-09T22:03:04.819Z,0.81
2023-05-09T22:05:36.816Z,0.71
2023-05-09T22:08:08.607Z,0.85
2023-05-09T22:10:40.218Z,0.82
2023-05-09T22:13:12.003Z,0.69
2023-05-09T22:15:43.940Z,0.69
2023-05-09T22:18:15.842Z,0.72
2023-05-09T22:20:48.266Z,0.82
2023-05-09T22:23:20.093Z,0.73
2023-05-09T22:25:51.999Z,0.76
2023-05-09T22:28:24.026Z,0.69
2023-05-09T22:30:55.813Z,0.88
2023-05-09T22:33:27.754Z,0.71
2023-05-09T22:36:00.136Z,0.72
2023-05-09T22:38:32.042Z,0.70
2023-05-09T22:41:03.935Z,0.70
2023-05-09T22:43:39.189Z,0.69
2023-05-09T22:46:12.055Z,0.69
2023-05-09T22:48:43.960Z,0.76
2023-05-09T22:51:15.914Z,0.73
2023-05-09T22:53:48.266Z,0.82
2023-05-09T22:56:20.184Z,0.77
2023-05-09T22:58:52.288Z,0.72
2023-05-09T23:01:24.301Z,0.76
2023-05-09T23:03:56.196Z,0.80
2023-05-09T23:06:28.391Z,0.92
2023-05-09T23:09:01.647Z,0.88
2023-05-09T23:11:33.244Z,1.05
2023-05-09T23:14:04.822Z,0.68
2023-05-09T23:16:36.458Z,0.87
2023-05-09T23:19:08.032Z,0.89
2023-05-09T23:21:39.742Z,0.85
2023-05-09T23:24:11.369Z,0.81
2023-05-09T23:26:43.085Z,0.80
2023-05-09T23:29:14.733Z,0.82
2023-05-09T23:32:04.928Z,1.00
2023-05-09T23:34:36.623Z,0.73
2023-05-09T23:37:08.289Z,0.83
2023-05-09T23:39:39.846Z,0.94
2023-05-09T23:42:11.429Z,0.86
2023-05-09T23:44:43.093Z,1.00
2023-05-09T23:47:14.676Z,0.87
2023-05-09T23:49:46.298Z,0.85
2023-05-09T23:52:17.917Z,0.79
2023-05-09T23:54:49.627Z,0.71
2023-05-09T23:57:21.264Z,1.13
2023-05-09T23:59:52.883Z,0.74
